createdAt,value
2023-03-31T00:00:07.758Z,8.54
2023-03-31T00:01:09.329Z,8.50
2023-03-31T00:02:11.070Z,8.59
2023-03-31T00:03:13.744Z,8.58
2023-03-31T00:04:15.863Z,8.56
2023-03-31T00:05:17.598Z,8.56
2023-03-31T00:06:19.354Z,8.62
2023-03-31T00:07:21.696Z,8.65
2023-03-31T00:08:23.268Z,8.67
2023-03-31T00:09:25.315Z,8.67
2023-03-31T00:10:35.790Z,8.64
2023-03-31T00:11:37.372Z,8.67
2023-03-31T00:12:38.906Z,8.62
2023-03-31T00:13:40.457Z,8.57
2023-03-31T00:14:42.821Z,8.53
2023-03-31T00:15:44.437Z,8.49
2023-03-31T00:16:46.568Z,8.43
2023-03-31T00:17:48.276Z,8.38
2023-03-31T00:18:50.002Z,8.32
2023-03-31T00:19:51.660Z,8.28
2023-03-31T00:20:54.434Z,8.32
2023-03-31T00:21:56.029Z,8.34
2023-03-31T00:22:57.678Z,8.36
2023-03-31T00:24:06.961Z,8.34
2023-03-31T00:25:09.718Z,8.39
2023-03-31T00:26:11.279Z,8.38
2023-03-31T00:27:12.866Z,8.43
2023-03-31T00:28:14.428Z,8.42
2023-03-31T00:29:16.003Z,8.40
2023-03-31T00:30:17.592Z,8.44
2023-03-31T00:31:19.886Z,8.44
2023-03-31T00:32:22.060Z,8.43
2023-03-31T00:33:23.595Z,8.46
2023-03-31T00:34:26.327Z,8.43
2023-03-31T00:35:27.975Z,8.35
2023-03-31T00:36:29.579Z,8.36
2023-03-31T00:37:31.506Z,8.39
2023-03-31T00:38:33.996Z,8.31
2023-03-31T00:39:35.636Z,8.29
2023-03-31T00:40:37.220Z,8.30
2023-03-31T00:41:40.116Z,8.30
2023-03-31T00:42:43.591Z,8.27
2023-03-31T00:44:24.002Z,8.18
2023-03-31T00:45:29.940Z,8.18
2023-03-31T00:46:37.545Z,8.14
2023-03-31T00:47:41.152Z,8.16
2023-03-31T00:48:57.826Z,8.17
2023-03-31T00:49:59.556Z,8.15
2023-03-31T00:51:05.408Z,8.23
2023-03-31T00:52:15.977Z,8.23
2023-03-31T00:53:22.501Z,8.28
2023-03-31T00:54:27.019Z,8.29
2023-03-31T00:55:35.919Z,8.34
2023-03-31T00:56:41.643Z,8.26
2023-03-31T00:57:46.642Z,8.23
2023-03-31T00:58:48.468Z,8.26
2023-03-31T00:59:53.754Z,8.26
2023-03-31T01:01:00.219Z,8.25
2023-03-31T01:02:02.976Z,8.29
2023-03-31T01:03:07.683Z,8.30
2023-03-31T01:04:12.603Z,8.26
2023-03-31T01:05:14.486Z,8.30
2023-03-31T01:06:17.981Z,8.26
2023-03-31T01:07:26.521Z,8.22
2023-03-31T01:08:28.727Z,8.19
2023-03-31T01:09:31.088Z,8.17
2023-03-31T01:10:40.660Z,8.18
2023-03-31T01:11:47.942Z,8.23
2023-03-31T01:12:54.878Z,8.26
2023-03-31T01:13:56.746Z,8.24
2023-03-31T01:14:58.717Z,8.30
2023-03-31T01:16:00.324Z,8.32
2023-03-31T01:17:02.053Z,8.35
2023-03-31T01:18:06.139Z,8.34
2023-03-31T01:19:18.870Z,8.36
2023-03-31T01:20:30.908Z,8.33
2023-03-31T01:21:57.484Z,8.33
2023-03-31T01:23:21.425Z,8.30
2023-03-31T01:24:38.165Z,8.36
2023-03-31T01:26:17.377Z,8.37
2023-03-31T01:28:04.250Z,8.39
2023-03-31T01:29:25.578Z,8.40
2023-03-31T01:30:45.833Z,8.39
2023-03-31T01:31:50.195Z,8.37
2023-03-31T01:33:00.619Z,8.32
2023-03-31T01:34:16.975Z,8.35
2023-03-31T01:35:30.521Z,8.42
2023-03-31T01:36:56.686Z,8.37
2023-03-31T01:38:34.661Z,8.29
2023-03-31T01:40:03.833Z,8.21
2023-03-31T01:41:27.922Z,8.19
2023-03-31T01:42:54.065Z,8.13
2023-03-31T01:44:07.785Z,8.10
2023-03-31T01:45:27.542Z,8.09
2023-03-31T01:46:33.959Z,8.10
2023-03-31T01:47:44.585Z,8.17
2023-03-31T01:49:02.328Z,8.10
2023-03-31T01:50:26.175Z,8.10
2023-03-31T01:51:43.510Z,8.09
2023-03-31T01:52:45.007Z,8.08
2023-03-31T01:54:16.147Z,8.07
2023-03-31T01:55:41.086Z,8.14
2023-03-31T01:57:06.365Z,8.15
2023-03-31T01:58:34.749Z,8.07
2023-03-31T01:59:45.330Z,8.04
2023-03-31T02:00:56.422Z,7.94
2023-03-31T02:02:08.135Z,7.93
2023-03-31T02:03:15.086Z,7.86
2023-03-31T02:04:24.469Z,7.90
2023-03-31T02:05:32.871Z,7.93
2023-03-31T02:06:40.786Z,7.92
2023-03-31T02:08:11.805Z,7.92
2023-03-31T02:09:18.496Z,7.97
2023-03-31T02:10:22.540Z,7.91
2023-03-31T02:11:25.216Z,7.94
2023-03-31T02:12:31.080Z,7.89
2023-03-31T02:13:34.898Z,7.80
2023-03-31T02:14:39.496Z,7.80
2023-03-31T02:15:45.885Z,7.85
2023-03-31T02:16:52.484Z,7.89
2023-03-31T02:17:57.211Z,7.95
2023-03-31T02:19:03.291Z,8.00
2023-03-31T02:20:10.697Z,8.05
2023-03-31T02:21:13.207Z,8.03
2023-03-31T02:22:18.478Z,8.02
2023-03-31T02:23:25.937Z,8.06
2023-03-31T02:24:30.157Z,8.03
2023-03-31T02:26:00.964Z,8.03
2023-03-31T02:27:22.549Z,7.93
2023-03-31T02:28:25.988Z,7.91
2023-03-31T02:29:28.263Z,7.93
2023-03-31T02:30:45.554Z,7.90
2023-03-31T02:32:13.309Z,7.91
2023-03-31T02:33:14.986Z,7.91
2023-03-31T02:34:16.640Z,7.93
2023-03-31T02:35:20.744Z,7.97
2023-03-31T02:36:23.306Z,7.98
2023-03-31T02:37:27.922Z,8.03
2023-03-31T02:38:35.881Z,8.03
2023-03-31T02:39:43.238Z,8.00
2023-03-31T02:40:46.142Z,7.94
2023-03-31T02:41:47.749Z,7.98
2023-03-31T02:42:49.762Z,7.98
2023-03-31T02:43:51.417Z,7.98
2023-03-31T02:44:53.274Z,7.94
2023-03-31T02:45:54.979Z,7.95
2023-03-31T02:46:57.047Z,7.98
2023-03-31T02:47:58.692Z,8.01
2023-03-31T02:49:02.729Z,8.03
2023-03-31T02:50:05.218Z,8.06
2023-03-31T02:51:08.166Z,8.02
2023-03-31T02:52:13.831Z,8.00
2023-03-31T02:53:39.411Z,8.01
2023-03-31T02:55:00.350Z,7.97
2023-03-31T02:56:38.633Z,8.06
2023-03-31T02:58:17.557Z,8.05
2023-03-31T02:59:24.860Z,8.10
2023-03-31T03:00:51.389Z,8.09
2023-03-31T03:02:37.830Z,8.13
2023-03-31T03:04:24.598Z,8.26
2023-03-31T03:05:26.461Z,8.25
2023-03-31T03:07:05.500Z,8.19
2023-03-31T03:08:13.176Z,8.14
2023-03-31T03:09:37.396Z,8.08
2023-03-31T03:11:05.701Z,7.94
2023-03-31T03:12:35.627Z,7.93
2023-03-31T03:14:15.537Z,7.91
2023-03-31T03:15:24.363Z,7.84
2023-03-31T03:16:34.482Z,7.77
2023-03-31T03:17:44.212Z,7.74
2023-03-31T03:18:59.610Z,7.72
2023-03-31T03:20:03.621Z,7.73
2023-03-31T03:21:05.308Z,7.71
2023-03-31T03:22:08.813Z,7.71
2023-03-31T03:23:10.893Z,7.67
2023-03-31T03:24:12.628Z,7.67
2023-03-31T03:25:15.382Z,7.70
2023-03-31T03:26:17.023Z,7.68
2023-03-31T03:27:19.771Z,7.64
2023-03-31T03:28:21.319Z,7.69
2023-03-31T03:29:22.952Z,7.68
2023-03-31T03:30:24.582Z,7.67
2023-03-31T03:31:26.556Z,7.64
2023-03-31T03:32:28.381Z,7.62
2023-03-31T03:33:29.979Z,7.63
2023-03-31T03:34:31.755Z,7.66
2023-03-31T03:35:34.181Z,7.64
2023-03-31T03:36:37.190Z,7.70
2023-03-31T03:37:39.010Z,7.68
2023-03-31T03:38:40.661Z,7.71
2023-03-31T03:39:42.253Z,7.71
2023-03-31T03:40:43.804Z,7.69
2023-03-31T03:41:45.413Z,7.70
2023-03-31T03:42:46.994Z,7.78
2023-03-31T03:43:48.621Z,7.81
2023-03-31T03:44:50.318Z,7.87
2023-03-31T03:45:51.949Z,7.94
2023-03-31T03:46:53.647Z,7.95
2023-03-31T03:47:55.305Z,8.01
2023-03-31T03:48:56.931Z,8.11
2023-03-31T03:49:58.546Z,8.09
2023-03-31T03:51:01.139Z,8.08
2023-03-31T03:52:02.985Z,8.02
2023-03-31T03:53:04.647Z,7.95
2023-03-31T03:54:06.332Z,7.99
2023-03-31T03:55:08.297Z,7.96
2023-03-31T03:56:09.899Z,8.00
2023-03-31T03:57:11.610Z,8.01
2023-03-31T03:58:13.156Z,8.00
2023-03-31T03:59:14.820Z,8.02
2023-03-31T04:00:16.542Z,7.93
2023-03-31T04:01:18.204Z,7.88
2023-03-31T04:02:19.853Z,7.89
2023-03-31T04:03:21.565Z,7.90
2023-03-31T04:04:23.291Z,7.94
2023-03-31T04:05:24.951Z,7.92
2023-03-31T04:06:26.957Z,7.92
2023-03-31T04:07:28.527Z,7.91
2023-03-31T04:08:30.102Z,7.91
2023-03-31T04:09:31.793Z,7.89
2023-03-31T04:10:33.376Z,7.78
2023-03-31T04:11:35.341Z,7.70
2023-03-31T04:12:37.203Z,7.71
2023-03-31T04:13:38.772Z,7.68
2023-03-31T04:14:40.421Z,7.60
2023-03-31T04:15:42.372Z,7.52
2023-03-31T04:16:44.020Z,7.47
2023-03-31T04:17:45.654Z,7.52
2023-03-31T04:18:47.270Z,7.51
2023-03-31T04:19:48.849Z,7.54
2023-03-31T04:20:54.396Z,7.55
2023-03-31T04:21:55.958Z,7.58
2023-03-31T04:22:57.707Z,7.56
2023-03-31T04:23:59.263Z,7.48
2023-03-31T04:25:05.264Z,7.47
2023-03-31T04:26:07.154Z,7.52
2023-03-31T04:27:08.903Z,7.45
2023-03-31T04:28:10.466Z,7.47
2023-03-31T04:29:14.294Z,7.51
2023-03-31T04:30:17.113Z,7.53
2023-03-31T04:31:18.737Z,7.53
2023-03-31T04:32:23.821Z,7.52
2023-03-31T04:33:25.421Z,7.55
2023-03-31T04:34:27.520Z,7.52
2023-03-31T04:35:32.693Z,7.52
2023-03-31T04:36:34.313Z,7.55
2023-03-31T04:37:35.918Z,7.56
2023-03-31T04:38:37.494Z,7.60
2023-03-31T04:39:39.088Z,7.61
2023-03-31T04:40:40.651Z,7.67
2023-03-31T04:41:42.248Z,7.63
2023-03-31T04:42:44.818Z,7.59
2023-03-31T04:43:46.447Z,7.61
2023-03-31T04:44:48.003Z,7.63
2023-03-31T04:45:49.574Z,7.68
2023-03-31T04:46:51.215Z,7.69
2023-03-31T04:47:52.881Z,7.72
2023-03-31T04:48:54.680Z,7.76
2023-03-31T04:49:56.231Z,7.79
2023-03-31T04:50:57.908Z,7.73
2023-03-31T04:51:59.551Z,7.78
2023-03-31T04:53:01.174Z,7.86
2023-03-31T04:54:03.027Z,7.86
2023-03-31T04:55:04.965Z,7.87
2023-03-31T04:56:06.946Z,7.91
2023-03-31T04:57:08.689Z,7.92
2023-03-31T04:58:10.256Z,7.94
2023-03-31T04:59:11.942Z,7.91
2023-03-31T05:00:14.018Z,7.96
2023-03-31T05:01:15.552Z,7.96
2023-03-31T05:02:17.136Z,8.00
2023-03-31T05:03:18.913Z,8.04
2023-03-31T05:04:20.573Z,8.06
2023-03-31T05:05:22.174Z,8.09
2023-03-31T05:06:23.770Z,8.15
2023-03-31T05:07:25.379Z,8.12
2023-03-31T05:08:27.076Z,8.13
2023-03-31T05:09:28.650Z,8.20
2023-03-31T05:10:31.244Z,8.27
2023-03-31T05:11:32.796Z,8.34
2023-03-31T05:12:35.929Z,8.40
2023-03-31T05:13:37.498Z,8.49
2023-03-31T05:14:39.515Z,8.69
2023-03-31T05:15:41.111Z,8.92
2023-03-31T05:16:42.694Z,9.18
2023-03-31T05:17:44.392Z,9.41
2023-03-31T05:18:46.002Z,9.69
2023-03-31T05:19:47.552Z,9.97
2023-03-31T05:20:49.122Z,10.12
2023-03-31T05:21:50.717Z,10.28
2023-03-31T05:22:52.325Z,10.46
2023-03-31T05:23:54.104Z,10.63
2023-03-31T05:24:55.684Z,10.72
2023-03-31T05:25:57.269Z,10.94
2023-03-31T05:26:58.892Z,11.07
2023-03-31T05:28:01.524Z,11.27
2023-03-31T05:29:03.129Z,11.30
2023-03-31T05:30:05.461Z,11.43
2023-03-31T05:31:08.618Z,11.58
2023-03-31T05:32:10.442Z,11.74
2023-03-31T05:33:14.179Z,11.72
2023-03-31T05:34:16.386Z,11.72
2023-03-31T05:35:18.335Z,11.73
2023-03-31T05:36:19.982Z,11.79
2023-03-31T05:37:21.614Z,11.89
2023-03-31T05:38:23.473Z,11.80
2023-03-31T05:39:25.055Z,11.84
2023-03-31T05:40:26.647Z,11.90
2023-03-31T05:41:28.224Z,11.99
2023-03-31T05:42:29.860Z,12.08
2023-03-31T05:43:31.454Z,12.06
2023-03-31T05:44:33.277Z,12.07
2023-03-31T05:45:34.964Z,12.12
2023-03-31T05:46:36.822Z,12.09
2023-03-31T05:47:38.462Z,12.18
2023-03-31T05:48:40.068Z,12.22
2023-03-31T05:49:41.846Z,12.22
2023-03-31T05:50:43.564Z,12.23
2023-03-31T05:51:45.214Z,12.30
2023-03-31T05:52:46.781Z,12.42
2023-03-31T05:53:48.461Z,12.39
2023-03-31T05:54:50.066Z,12.37
2023-03-31T05:55:57.346Z,12.44
2023-03-31T05:56:59.027Z,12.45
2023-03-31T05:58:00.665Z,12.50
2023-03-31T05:59:02.237Z,12.54
2023-03-31T06:00:05.388Z,12.50
2023-03-31T06:01:09.896Z,12.55
2023-03-31T06:02:13.651Z,12.58
2023-03-31T06:03:15.402Z,12.50
2023-03-31T06:04:17.122Z,12.55
2023-03-31T06:05:18.782Z,12.66
2023-03-31T06:06:22.098Z,12.78
2023-03-31T06:07:24.608Z,13.00
2023-03-31T06:08:26.160Z,13.12
2023-03-31T06:09:27.809Z,13.23
2023-03-31T06:10:29.491Z,13.40
2023-03-31T06:11:31.884Z,13.44
2023-03-31T06:12:33.437Z,13.45
2023-03-31T06:13:36.071Z,13.56
2023-03-31T06:14:37.582Z,13.57
2023-03-31T06:15:39.164Z,13.49
2023-03-31T06:16:40.769Z,13.61
2023-03-31T06:17:42.375Z,13.67
2023-03-31T06:18:44.681Z,13.98
2023-03-31T06:19:46.198Z,14.09
2023-03-31T06:20:47.787Z,14.23
2023-03-31T06:21:49.545Z,14.30
2023-03-31T06:22:51.115Z,14.35
2023-03-31T06:23:52.688Z,14.44
2023-03-31T06:24:54.234Z,14.59
2023-03-31T06:26:01.037Z,14.76
2023-03-31T06:27:02.880Z,14.98
2023-03-31T06:28:04.708Z,15.00
2023-03-31T06:29:06.324Z,15.09
2023-03-31T06:30:08.589Z,15.27
2023-03-31T06:31:13.423Z,15.26
2023-03-31T06:32:15.016Z,15.16
2023-03-31T06:33:16.605Z,15.31
2023-03-31T06:34:20.039Z,15.37
2023-03-31T06:35:22.892Z,15.43
2023-03-31T06:36:24.478Z,15.70
2023-03-31T06:37:26.210Z,15.75
2023-03-31T06:38:28.422Z,15.76
2023-03-31T06:39:29.965Z,15.64
2023-03-31T06:40:31.758Z,15.44
2023-03-31T06:41:33.343Z,15.30
2023-03-31T06:42:34.899Z,15.20
2023-03-31T06:43:36.478Z,15.44
2023-03-31T06:44:37.980Z,15.64
2023-03-31T06:45:39.582Z,15.60
2023-03-31T06:46:41.231Z,15.58
2023-03-31T06:47:42.864Z,15.65
2023-03-31T06:48:44.430Z,15.68
2023-03-31T06:49:46.042Z,15.49
2023-03-31T06:50:47.762Z,15.34
2023-03-31T06:51:49.334Z,15.16
2023-03-31T06:52:50.855Z,14.87
2023-03-31T06:53:52.444Z,14.54
2023-03-31T06:54:54.037Z,14.40
2023-03-31T06:55:55.620Z,14.33
2023-03-31T06:56:57.234Z,14.30
2023-03-31T06:57:58.775Z,14.37
2023-03-31T06:59:00.339Z,14.37
2023-03-31T07:00:02.617Z,14.41
2023-03-31T07:01:06.102Z,14.51
2023-03-31T07:02:10.315Z,14.46
2023-03-31T07:03:12.349Z,14.52
2023-03-31T07:04:14.197Z,14.57
2023-03-31T07:05:15.841Z,14.67
2023-03-31T07:06:17.443Z,14.74
2023-03-31T07:07:19.363Z,14.81
2023-03-31T07:08:21.404Z,14.94
2023-03-31T07:09:23.353Z,14.94
2023-03-31T07:10:26.923Z,15.10
2023-03-31T07:11:28.499Z,15.21
2023-03-31T07:12:33.454Z,15.21
2023-03-31T07:13:35.036Z,15.21
2023-03-31T07:14:36.897Z,15.11
2023-03-31T07:15:38.502Z,15.04
2023-03-31T07:16:40.259Z,14.96
2023-03-31T07:17:42.359Z,14.83
2023-03-31T07:18:45.211Z,14.69
2023-03-31T07:19:46.743Z,14.74
2023-03-31T07:20:48.990Z,14.65
2023-03-31T07:21:50.845Z,14.52
2023-03-31T07:22:52.370Z,14.42
2023-03-31T07:23:53.924Z,14.19
2023-03-31T07:24:55.443Z,14.13
2023-03-31T07:25:57.062Z,14.07
2023-03-31T07:26:58.711Z,13.92
2023-03-31T07:28:00.323Z,13.79
2023-03-31T07:29:01.940Z,13.68
2023-03-31T07:30:08.242Z,13.62
2023-03-31T07:31:14.228Z,13.53
2023-03-31T07:32:15.884Z,13.61
2023-03-31T07:33:17.471Z,13.63
2023-03-31T07:34:19.044Z,13.75
2023-03-31T07:35:21.604Z,13.77
2023-03-31T07:36:23.457Z,13.73
2023-03-31T07:37:25.305Z,13.79
2023-03-31T07:38:26.950Z,13.81
2023-03-31T07:39:28.561Z,13.79
2023-03-31T07:40:30.220Z,13.72
2023-03-31T07:41:31.858Z,13.66
2023-03-31T07:42:34.616Z,13.56
2023-03-31T07:43:36.370Z,13.46
2023-03-31T07:44:38.013Z,13.52
2023-03-31T07:45:40.682Z,13.63
2023-03-31T07:46:42.280Z,13.65
2023-03-31T07:47:44.964Z,13.72
2023-03-31T07:48:46.888Z,13.89
2023-03-31T07:49:48.455Z,14.03
2023-03-31T07:50:50.143Z,14.08
2023-03-31T07:52:02.049Z,14.18
2023-03-31T07:53:03.764Z,14.29
2023-03-31T07:54:05.420Z,14.36
2023-03-31T07:55:08.438Z,14.44
2023-03-31T07:56:10.182Z,14.57
2023-03-31T07:57:12.130Z,14.76
2023-03-31T07:58:13.728Z,14.76
2023-03-31T07:59:15.484Z,14.69
2023-03-31T08:00:18.032Z,14.85
2023-03-31T08:01:21.272Z,14.99
2023-03-31T08:02:23.510Z,15.12
2023-03-31T08:03:25.248Z,15.21
2023-03-31T08:04:26.944Z,15.29
2023-03-31T08:05:28.560Z,15.42
2023-03-31T08:06:30.280Z,15.39
2023-03-31T08:07:38.397Z,15.31
2023-03-31T08:08:39.926Z,15.17
2023-03-31T08:09:44.558Z,15.08
2023-03-31T08:10:46.103Z,14.89
2023-03-31T08:11:48.389Z,14.62
2023-03-31T08:12:49.940Z,14.64
2023-03-31T08:13:52.120Z,14.53
2023-03-31T08:14:53.748Z,14.59
2023-03-31T08:15:55.368Z,14.56
2023-03-31T08:16:56.992Z,14.54
2023-03-31T08:17:58.782Z,14.59
2023-03-31T08:19:00.398Z,14.64
2023-03-31T08:20:06.142Z,14.69
2023-03-31T08:21:09.563Z,14.67
2023-03-31T08:22:11.260Z,14.62
2023-03-31T08:23:12.802Z,14.59
2023-03-31T08:24:14.434Z,14.64
2023-03-31T08:25:16.032Z,14.70
2023-03-31T08:26:18.093Z,14.79
2023-03-31T08:27:19.805Z,14.87
2023-03-31T08:28:21.422Z,14.86
2023-03-31T08:29:23.006Z,14.84
2023-03-31T08:30:24.717Z,14.60
2023-03-31T08:31:27.539Z,14.49
2023-03-31T08:32:29.282Z,14.44
2023-03-31T08:33:30.896Z,14.45
2023-03-31T08:34:32.589Z,14.30
2023-03-31T08:35:37.180Z,14.26
2023-03-31T08:36:38.785Z,14.16
2023-03-31T08:37:40.387Z,14.12
2023-03-31T08:38:43.571Z,14.10
2023-03-31T08:39:45.200Z,14.11
2023-03-31T08:40:49.104Z,14.08
2023-03-31T08:42:13.269Z,14.04
2023-03-31T08:43:30.164Z,14.00
2023-03-31T08:44:42.796Z,14.05
2023-03-31T08:45:47.522Z,14.01
2023-03-31T08:46:52.639Z,14.00
2023-03-31T08:47:59.137Z,13.96
2023-03-31T08:49:01.988Z,14.00
2023-03-31T08:50:19.401Z,14.02
2023-03-31T08:51:36.393Z,14.23
2023-03-31T08:53:04.055Z,14.41
2023-03-31T08:54:14.920Z,14.45
2023-03-31T08:55:24.250Z,14.43
2023-03-31T08:56:27.385Z,14.52
2023-03-31T08:57:35.901Z,14.47
2023-03-31T08:58:43.394Z,14.64
2023-03-31T08:59:45.417Z,14.80
2023-03-31T09:00:56.634Z,14.94
2023-03-31T09:02:04.425Z,15.09
2023-03-31T09:03:18.792Z,15.14
2023-03-31T09:04:32.189Z,15.22
2023-03-31T09:06:00.567Z,15.23
2023-03-31T09:07:44.371Z,15.14
2023-03-31T09:08:46.117Z,14.99
2023-03-31T09:10:07.899Z,14.88
2023-03-31T09:11:38.265Z,14.75
2023-03-31T09:12:46.210Z,14.68
2023-03-31T09:13:56.452Z,14.52
2023-03-31T09:15:03.775Z,14.49
2023-03-31T09:16:11.879Z,14.43
2023-03-31T09:17:43.960Z,14.38
2023-03-31T09:18:45.727Z,14.34
2023-03-31T09:20:00.212Z,14.33
2023-03-31T09:21:22.473Z,14.27
2023-03-31T09:22:31.340Z,14.12
2023-03-31T09:23:38.323Z,14.01
2023-03-31T09:25:08.819Z,14.10
2023-03-31T09:26:24.015Z,14.22
2023-03-31T09:27:28.528Z,14.27
2023-03-31T09:28:35.180Z,14.32
2023-03-31T09:29:49.424Z,14.25
2023-03-31T09:30:51.541Z,14.29
2023-03-31T09:31:53.172Z,14.33
2023-03-31T09:33:03.719Z,14.37
2023-03-31T09:34:14.120Z,14.25
2023-03-31T09:35:20.267Z,14.29
2023-03-31T09:36:22.060Z,14.30
2023-03-31T09:37:27.426Z,14.23
2023-03-31T09:38:29.251Z,14.23
2023-03-31T09:39:30.980Z,14.30
2023-03-31T09:40:34.282Z,14.40
2023-03-31T09:41:35.876Z,14.43
2023-03-31T09:42:38.634Z,14.36
2023-03-31T09:44:49.243Z,14.60
2023-03-31T09:46:14.841Z,14.77
2023-03-31T09:47:40.116Z,14.89
2023-03-31T09:48:48.618Z,14.80
2023-03-31T09:49:54.019Z,14.80
2023-03-31T09:50:59.774Z,14.73
2023-03-31T09:52:15.484Z,14.63
2023-03-31T09:53:32.630Z,14.53
2023-03-31T09:54:43.936Z,14.56
2023-03-31T09:55:52.471Z,14.37
2023-03-31T09:56:54.098Z,14.40
2023-03-31T09:57:55.787Z,14.36
2023-03-31T09:59:01.254Z,14.33
2023-03-31T10:00:23.248Z,14.34
2023-03-31T10:01:24.793Z,14.36
2023-03-31T10:02:38.875Z,14.33
2023-03-31T10:03:52.821Z,14.42
2023-03-31T10:04:54.562Z,14.45
2023-03-31T10:05:57.285Z,14.56
2023-03-31T10:07:00.553Z,14.61
2023-03-31T10:08:13.837Z,14.61
2023-03-31T10:09:16.076Z,14.64
2023-03-31T10:10:28.894Z,14.69
2023-03-31T10:11:31.195Z,14.72
2023-03-31T10:12:33.110Z,14.84
2023-03-31T10:13:54.616Z,14.92
2023-03-31T10:15:14.359Z,15.04
2023-03-31T10:16:27.496Z,15.11
2023-03-31T10:17:29.289Z,15.09
2023-03-31T10:18:42.549Z,15.04
2023-03-31T10:19:49.795Z,15.03
2023-03-31T10:20:52.761Z,15.12
2023-03-31T10:22:15.640Z,15.26
2023-03-31T10:23:31.408Z,15.26
2023-03-31T10:24:39.235Z,15.35
2023-03-31T10:25:40.879Z,15.38
2023-03-31T10:26:43.020Z,15.53
2023-03-31T10:27:49.763Z,15.63
2023-03-31T10:28:52.825Z,15.65
2023-03-31T10:30:08.830Z,15.54
2023-03-31T10:31:10.612Z,15.60
2023-03-31T10:32:26.356Z,15.53
2023-03-31T10:33:30.797Z,15.51
2023-03-31T10:34:41.849Z,15.39
2023-03-31T10:35:43.722Z,15.42
2023-03-31T10:36:51.123Z,15.44
2023-03-31T10:37:56.908Z,15.31
2023-03-31T10:38:58.840Z,15.32
2023-03-31T10:40:03.615Z,15.40
2023-03-31T10:41:05.567Z,15.41
2023-03-31T10:42:07.513Z,15.43
2023-03-31T10:43:16.871Z,15.39
2023-03-31T10:44:39.777Z,15.34
2023-03-31T10:45:52.805Z,15.34
2023-03-31T10:46:54.384Z,15.31
2023-03-31T10:47:58.664Z,15.38
2023-03-31T10:49:00.296Z,15.46
2023-03-31T10:50:13.166Z,15.49
2023-03-31T10:51:20.487Z,15.51
2023-03-31T10:52:24.577Z,15.53
2023-03-31T10:53:26.204Z,15.46
2023-03-31T10:54:27.844Z,15.43
2023-03-31T10:55:38.406Z,15.44
2023-03-31T10:56:55.473Z,15.55
2023-03-31T10:58:06.150Z,15.63
2023-03-31T10:59:43.010Z,15.55
2023-03-31T11:01:06.502Z,15.55
2023-03-31T11:02:32.737Z,15.62
2023-03-31T11:03:55.960Z,15.71
2023-03-31T11:05:22.143Z,15.90
2023-03-31T11:06:32.687Z,16.08
2023-03-31T11:07:52.168Z,16.28
2023-03-31T11:08:56.508Z,16.49
2023-03-31T11:10:32.224Z,16.64
2023-03-31T11:11:56.569Z,16.68
2023-03-31T11:13:11.435Z,16.69
2023-03-31T11:14:42.064Z,16.81
2023-03-31T11:15:49.617Z,16.78
2023-03-31T11:17:09.427Z,16.59
2023-03-31T11:18:36.329Z,16.49
2023-03-31T11:19:49.950Z,16.43
2023-03-31T11:21:22.171Z,16.42
2023-03-31T11:22:37.574Z,16.48
2023-03-31T11:24:07.973Z,16.50
2023-03-31T11:25:20.594Z,16.58
2023-03-31T11:26:35.675Z,16.64
2023-03-31T11:27:49.883Z,16.64
2023-03-31T11:28:57.556Z,16.63
2023-03-31T11:30:21.250Z,16.56
2023-03-31T11:31:28.523Z,16.56
2023-03-31T11:32:31.457Z,16.50
2023-03-31T11:33:52.070Z,16.46
2023-03-31T11:35:14.471Z,16.37
2023-03-31T11:36:32.380Z,16.34
2023-03-31T11:38:00.970Z,16.21
2023-03-31T11:39:22.727Z,16.01
2023-03-31T11:40:43.208Z,15.93
2023-03-31T11:41:52.405Z,15.80
2023-03-31T11:43:17.228Z,15.81
2023-03-31T11:44:20.496Z,15.69
2023-03-31T11:45:28.327Z,15.67
2023-03-31T11:46:36.037Z,15.69
2023-03-31T11:47:39.586Z,15.66
2023-03-31T11:48:59.978Z,15.59
2023-03-31T11:50:11.138Z,15.58
2023-03-31T11:51:38.765Z,15.55
2023-03-31T11:52:45.213Z,15.44
2023-03-31T11:53:48.350Z,15.30
2023-03-31T11:55:03.327Z,15.23
2023-03-31T11:56:09.622Z,15.18
2023-03-31T11:57:19.200Z,15.13
2023-03-31T11:58:27.448Z,14.93
2023-03-31T11:59:32.035Z,14.85
2023-03-31T12:00:46.511Z,14.81
2023-03-31T12:02:15.256Z,14.71
2023-03-31T12:03:21.145Z,14.68
2023-03-31T12:04:36.993Z,14.62
2023-03-31T12:05:48.071Z,14.54
2023-03-31T12:06:50.416Z,14.45
2023-03-31T12:08:12.067Z,14.46
2023-03-31T12:09:23.938Z,14.37
2023-03-31T12:10:51.988Z,14.34
2023-03-31T12:12:07.869Z,14.28
2023-03-31T12:13:30.518Z,14.19
2023-03-31T12:14:43.463Z,14.16
2023-03-31T12:16:00.251Z,14.13
2023-03-31T12:17:13.753Z,14.07
2023-03-31T12:18:25.441Z,14.04
2023-03-31T12:19:35.699Z,14.00
2023-03-31T12:20:42.559Z,13.87
2023-03-31T12:22:13.212Z,13.87
2023-03-31T12:23:19.612Z,13.77
2023-03-31T12:24:21.193Z,13.80
2023-03-31T12:25:23.443Z,13.81
2023-03-31T12:26:33.583Z,13.71
2023-03-31T12:27:43.055Z,13.71
2023-03-31T12:28:46.634Z,13.76
2023-03-31T12:30:37.457Z,13.68
2023-03-31T12:31:43.381Z,13.75
2023-03-31T12:33:12.370Z,13.67
2023-03-31T12:34:16.833Z,13.73
2023-03-31T12:35:26.027Z,13.70
2023-03-31T12:36:49.111Z,13.76
2023-03-31T12:38:05.696Z,13.84
2023-03-31T12:39:13.156Z,13.85
2023-03-31T12:40:36.315Z,13.87
2023-03-31T12:42:15.151Z,13.90
2023-03-31T12:43:25.609Z,13.86
2023-03-31T12:44:48.223Z,13.83
2023-03-31T12:45:59.504Z,13.80
2023-03-31T12:47:32.893Z,13.86
2023-03-31T12:48:34.437Z,13.93
2023-03-31T12:49:47.964Z,13.88
2023-03-31T12:51:14.328Z,13.93
2023-03-31T12:52:32.550Z,13.86
2023-03-31T12:53:48.088Z,13.82
2023-03-31T12:55:21.896Z,13.85
2023-03-31T12:56:23.468Z,13.83
2023-03-31T12:57:26.398Z,13.75
2023-03-31T12:58:29.509Z,13.71
2023-03-31T12:59:37.984Z,13.70
2023-03-31T13:01:04.319Z,13.79
2023-03-31T13:02:15.206Z,13.79
2023-03-31T13:03:35.043Z,13.73
2023-03-31T13:04:38.060Z,13.74
2023-03-31T13:05:46.860Z,13.79
2023-03-31T13:06:52.253Z,13.83
2023-03-31T13:07:53.845Z,13.79
2023-03-31T13:09:33.487Z,13.77
2023-03-31T13:10:58.254Z,13.80
2023-03-31T13:12:08.078Z,13.87
2023-03-31T13:13:15.988Z,13.88
2023-03-31T13:14:27.185Z,13.86
2023-03-31T13:15:29.667Z,13.88
2023-03-31T13:16:33.286Z,13.77
2023-03-31T13:17:38.441Z,13.78
2023-03-31T13:18:40.002Z,13.79
2023-03-31T13:19:42.395Z,13.77
2023-03-31T13:20:44.610Z,13.74
2023-03-31T13:21:57.702Z,13.78
2023-03-31T13:23:02.278Z,13.72
2023-03-31T13:24:07.204Z,13.81
2023-03-31T13:25:36.998Z,13.80
2023-03-31T13:26:46.861Z,13.70
2023-03-31T13:27:49.959Z,13.63
2023-03-31T13:29:17.176Z,13.52
2023-03-31T13:30:37.135Z,13.47
2023-03-31T13:32:00.311Z,13.43
2023-03-31T13:33:09.815Z,13.27
2023-03-31T13:34:11.450Z,13.24
2023-03-31T13:35:25.503Z,13.19
2023-03-31T13:36:32.814Z,13.14
2023-03-31T13:37:36.936Z,13.01
2023-03-31T13:38:59.614Z,12.97
2023-03-31T13:40:20.539Z,12.98
2023-03-31T13:41:24.832Z,13.04
2023-03-31T13:43:01.182Z,13.03
2023-03-31T13:44:33.731Z,13.01
2023-03-31T13:45:58.231Z,13.04
2023-03-31T13:47:18.136Z,13.06
2023-03-31T13:48:43.947Z,13.08
2023-03-31T13:50:20.906Z,12.92
2023-03-31T13:51:29.186Z,12.82
2023-03-31T13:53:02.251Z,12.86
2023-03-31T13:54:22.328Z,12.88
2023-03-31T13:55:51.642Z,12.89
2023-03-31T13:57:14.780Z,12.84
2023-03-31T13:58:51.735Z,12.91
2023-03-31T14:00:15.272Z,12.90
2023-03-31T14:01:16.825Z,12.90
2023-03-31T14:02:39.771Z,12.91
2023-03-31T14:03:50.014Z,12.85
2023-03-31T14:05:16.477Z,12.91
2023-03-31T14:06:29.091Z,12.86
2023-03-31T14:07:37.091Z,12.87
2023-03-31T14:08:38.590Z,12.86
2023-03-31T14:14:02.760Z,12.96
2023-03-31T14:15:06.382Z,12.97
2023-03-31T14:16:09.361Z,12.92
2023-03-31T14:18:47.953Z,12.93
2023-03-31T14:20:14.060Z,12.96
2023-03-31T14:21:43.076Z,12.93
2023-03-31T14:22:53.535Z,12.96
2023-03-31T14:24:03.725Z,12.96
2023-03-31T14:25:17.546Z,12.87
2023-03-31T14:26:37.596Z,12.90
2023-03-31T14:27:59.546Z,12.85
2023-03-31T14:29:31.068Z,12.93
2023-03-31T14:30:47.719Z,12.97
2023-03-31T14:32:17.500Z,13.02
2023-03-31T14:36:02.294Z,13.05
2023-03-31T14:37:09.865Z,13.12
2023-03-31T14:38:20.589Z,13.20
2023-03-31T14:39:25.907Z,13.22
2023-03-31T14:40:27.516Z,13.25
2023-03-31T14:41:29.244Z,13.17
2023-03-31T14:42:38.802Z,13.22
2023-03-31T14:43:48.687Z,13.20
2023-03-31T14:44:56.543Z,13.25
2023-03-31T14:46:03.545Z,13.31
2023-03-31T14:47:06.133Z,13.34
2023-03-31T14:48:15.120Z,13.39
2023-03-31T14:49:19.457Z,13.40
2023-03-31T14:50:21.216Z,13.43
2023-03-31T14:51:29.503Z,13.43
2023-03-31T14:52:32.540Z,13.43
2023-03-31T14:53:36.402Z,13.41
2023-03-31T14:54:37.951Z,13.37